Iwakuni, Japan
Current Conditions -  °F | °C
As of 10:55 AM on Sunday 23 Nov 2014 (Local Time) from RJOI Reporting Station
Scattered Clouds Scattered Clouds  
Wind Chill: 64°   Ceiling: Unl
Heat Index: 64°   Visibility: 6mi
Dew Point: 46°   Wind: 12mph
Humidity: 52%   Direction: 30°NNE
Pressure: 30.26"   Gusts: NA
Location:  34.17°N, 132.23°E
Report Text: RJOI 230155Z 03010KT 9999 FEW025 SCT230 18/08 A3026 RMK SLP245 T01780078
Loading
Personal Weather Stations






























Interactive Weather Map New forecast layout! Learn more

10-Day Weather Forecast

Advertisements
Track Severe Weather on mobile